sensor_id;sensor_type;location;lat;lon;timestamp;P1;durP1;ratioP1;P2;durP2;ratioP2
22995;SDS011;11664;49.774;8.650;2023-04-25T00:01:29;44.25;;;41.75;;
22995;SDS011;11664;49.774;8.650;2023-04-25T00:03:58;15.63;;;14.45;;
22995;SDS011;11664;49.774;8.650;2023-04-25T00:06:23;7.38;;;6.85;;
22995;SDS011;11664;49.774;8.650;2023-04-25T00:08:54;8.73;;;8.05;;
22995;SDS011;11664;49.774;8.650;2023-04-25T00:11:20;5.97;;;5.47;;
22995;SDS011;11664;49.774;8.650;2023-04-25T00:13:49;7.05;;;5.90;;
22995;SDS011;11664;49.774;8.650;2023-04-25T00:16:25;11.60;;;10.70;;
22995;SDS011;11664;49.774;8.650;2023-04-25T00:18:55;12.55;;;11.43;;
22995;SDS011;11664;49.774;8.650;2023-04-25T00:21:20;12.98;;;11.98;;
22995;SDS011;11664;49.774;8.650;2023-04-25T00:23:52;15.18;;;14.05;;
22995;SDS011;11664;49.774;8.650;2023-04-25T00:26:28;12.55;;;11.55;;
22995;SDS011;11664;49.774;8.650;2023-04-25T00:28:59;12.05;;;11.07;;
22995;SDS011;11664;49.774;8.650;2023-04-25T00:31:31;13.85;;;12.85;;
22995;SDS011;11664;49.774;8.650;2023-04-25T00:33:57;14.20;;;12.95;;
22995;SDS011;11664;49.774;8.650;2023-04-25T00:36:25;15.02;;;14.10;;
22995;SDS011;11664;49.774;8.650;2023-04-25T00:38:54;11.85;;;10.93;;
22995;SDS011;11664;49.774;8.650;2023-04-25T00:41:23;12.18;;;11.27;;
22995;SDS011;11664;49.774;8.650;2023-04-25T00:43:51;14.07;;;13.13;;
22995;SDS011;11664;49.774;8.650;2023-04-25T00:46:18;9.40;;;8.70;;
22995;SDS011;11664;49.774;8.650;2023-04-25T00:48:46;9.57;;;8.82;;
22995;SDS011;11664;49.774;8.650;2023-04-25T00:51:21;9.15;;;8.45;;
22995;SDS011;11664;49.774;8.650;2023-04-25T00:53:50;15.90;;;14.80;;
22995;SDS011;11664;49.774;8.650;2023-04-25T00:56:19;10.77;;;9.95;;
22995;SDS011;11664;49.774;8.650;2023-04-25T00:58:53;10.82;;;10.00;;
22995;SDS011;11664;49.774;8.650;2023-04-25T01:01:24;8.27;;;7.55;;
22995;SDS011;11664;49.774;8.650;2023-04-25T01:04:08;7.20;;;6.63;;
22995;SDS011;11664;49.774;8.650;2023-04-25T01:06:34;9.50;;;8.63;;
22995;SDS011;11664;49.774;8.650;2023-04-25T01:09:06;15.27;;;14.10;;
22995;SDS011;11664;49.774;8.650;2023-04-25T01:11:32;17.17;;;16.08;;
22995;SDS011;11664;49.774;8.650;2023-04-25T01:14:04;22.08;;;20.52;;
22995;SDS011;11664;49.774;8.650;2023-04-25T01:16:33;26.08;;;24.42;;
22995;SDS011;11664;49.774;8.650;2023-04-25T01:18:59;24.30;;;22.70;;
22995;SDS011;11664;49.774;8.650;2023-04-25T01:21:24;12.70;;;11.77;;
22995;SDS011;11664;49.774;8.650;2023-04-25T01:23:52;13.77;;;12.60;;
22995;SDS011;11664;49.774;8.650;2023-04-25T01:26:22;10.32;;;9.50;;
22995;SDS011;11664;49.774;8.650;2023-04-25T01:28:48;19.08;;;17.67;;
22995;SDS011;11664;49.774;8.650;2023-04-25T01:31:15;15.07;;;14.02;;
22995;SDS011;11664;49.774;8.650;2023-04-25T01:33:41;14.48;;;13.30;;
22995;SDS011;11664;49.774;8.650;2023-04-25T01:36:16;10.70;;;9.77;;
22995;SDS011;11664;49.774;8.650;2023-04-25T01:38:45;11.45;;;10.52;;
22995;SDS011;11664;49.774;8.650;2023-04-25T01:41:12;9.15;;;8.35;;
22995;SDS011;11664;49.774;8.650;2023-04-25T01:43:38;9.48;;;8.75;;
22995;SDS011;11664;49.774;8.650;2023-04-25T01:46:13;9.07;;;7.55;;
22995;SDS011;11664;49.774;8.650;2023-04-25T01:48:39;10.65;;;9.82;;
22995;SDS011;11664;49.774;8.650;2023-04-25T01:51:07;7.60;;;6.40;;
22995;SDS011;11664;49.774;8.650;2023-04-25T01:53:33;6.70;;;6.03;;
22995;SDS011;11664;49.774;8.650;2023-04-25T01:55:59;7.07;;;6.47;;
22995;SDS011;11664;49.774;8.650;2023-04-25T01:58:30;13.50;;;12.43;;
22995;SDS011;11664;49.774;8.650;2023-04-25T02:01:05;16.63;;;15.32;;
22995;SDS011;11664;49.774;8.650;2023-04-25T02:03:31;14.88;;;13.88;;
22995;SDS011;11664;49.774;8.650;2023-04-25T02:06:03;12.88;;;11.80;;
22995;SDS011;11664;49.774;8.650;2023-04-25T02:08:28;12.88;;;11.88;;
22995;SDS011;11664;49.774;8.650;2023-04-25T02:10:55;12.82;;;11.85;;
22995;SDS011;11664;49.774;8.650;2023-04-25T02:13:20;12.05;;;11.05;;
22995;SDS011;11664;49.774;8.650;2023-04-25T02:15:58;10.77;;;9.77;;
22995;SDS011;11664;49.774;8.650;2023-04-25T02:18:26;14.50;;;13.37;;
22995;SDS011;11664;49.774;8.650;2023-04-25T02:20:55;7.75;;;6.95;;
22995;SDS011;11664;49.774;8.650;2023-04-25T02:23:27;11.00;;;9.90;;
22995;SDS011;11664;49.774;8.650;2023-04-25T02:25:53;10.65;;;9.70;;
22995;SDS011;11664;49.774;8.650;2023-04-25T02:28:26;11.23;;;10.07;;
22995;SDS011;11664;49.774;8.650;2023-04-25T02:30:52;10.43;;;9.52;;
22995;SDS011;11664;49.774;8.650;2023-04-25T02:33:20;10.02;;;9.05;;
22995;SDS011;11664;49.774;8.650;2023-04-25T02:35:46;12.07;;;11.00;;
22995;SDS011;11664;49.774;8.650;2023-04-25T02:38:14;15.45;;;14.20;;
22995;SDS011;11664;49.774;8.650;2023-04-25T02:40:43;14.82;;;13.68;;
22995;SDS011;11664;49.774;8.650;2023-04-25T02:43:18;21.38;;;19.98;;
22995;SDS011;11664;49.774;8.650;2023-04-25T02:45:49;17.40;;;16.13;;
22995;SDS011;11664;49.774;8.650;2023-04-25T02:51:37;19.40;;;18.02;;
22995;SDS011;11664;49.774;8.650;2023-04-25T02:54:05;17.20;;;15.85;;
22995;SDS011;11664;49.774;8.650;2023-04-25T02:56:31;12.73;;;11.57;;
22995;SDS011;11664;49.774;8.650;2023-04-25T02:59:03;14.45;;;11.20;;
22995;SDS011;11664;49.774;8.650;2023-04-25T03:01:40;11.65;;;10.70;;
22995;SDS011;11664;49.774;8.650;2023-04-25T03:04:06;11.23;;;10.18;;
22995;SDS011;11664;49.774;8.650;2023-04-25T03:06:35;14.15;;;13.02;;
22995;SDS011;11664;49.774;8.650;2023-04-25T03:09:06;8.60;;;7.70;;
22995;SDS011;11664;49.774;8.650;2023-04-25T03:11:38;9.68;;;8.45;;
22995;SDS011;11664;49.774;8.650;2023-04-25T03:14:16;9.95;;;9.05;;
22995;SDS011;11664;49.774;8.650;2023-04-25T03:16:45;10.02;;;9.13;;
22995;SDS011;11664;49.774;8.650;2023-04-25T03:19:13;9.23;;;8.32;;
22995;SDS011;11664;49.774;8.650;2023-04-25T03:21:41;12.35;;;11.18;;
22995;SDS011;11664;49.774;8.650;2023-04-25T03:24:06;14.10;;;12.90;;
22995;SDS011;11664;49.774;8.650;2023-04-25T03:26:32;17.83;;;16.40;;
22995;SDS011;11664;49.774;8.650;2023-04-25T03:28:57;15.32;;;14.02;;
22995;SDS011;11664;49.774;8.650;2023-04-25T03:31:32;13.73;;;12.52;;
22995;SDS011;11664;49.774;8.650;2023-04-25T03:33:57;19.25;;;17.90;;
22995;SDS011;11664;49.774;8.650;2023-04-25T03:36:23;16.48;;;15.13;;
22995;SDS011;11664;49.774;8.650;2023-04-25T03:38:55;14.13;;;12.93;;
22995;SDS011;11664;49.774;8.650;2023-04-25T03:41:26;14.35;;;12.90;;
22995;SDS011;11664;49.774;8.650;2023-04-25T03:43:56;17.58;;;16.20;;
22995;SDS011;11664;49.774;8.650;2023-04-25T03:46:24;13.13;;;10.23;;
22995;SDS011;11664;49.774;8.650;2023-04-25T03:48:50;10.68;;;9.68;;
22995;SDS011;11664;49.774;8.650;2023-04-25T03:51:15;10.57;;;9.57;;
22995;SDS011;11664;49.774;8.650;2023-04-25T03:53:44;10.27;;;7.70;;
22995;SDS011;11664;49.774;8.650;2023-04-25T03:56:10;17.88;;;16.52;;
22995;SDS011;11664;49.774;8.650;2023-04-25T03:58:41;10.17;;;9.27;;
22995;SDS011;11664;49.774;8.650;2023-04-25T04:01:10;14.48;;;13.05;;
22995;SDS011;11664;49.774;8.650;2023-04-25T04:03:35;11.98;;;10.88;;
22995;SDS011;11664;49.774;8.650;2023-04-25T04:06:07;10.57;;;9.65;;
22995;SDS011;11664;49.774;8.650;2023-04-25T04:08:34;15.95;;;14.60;;
22995;SDS011;11664;49.774;8.650;2023-04-25T04:11:02;13.02;;;11.85;;
22995;SDS011;11664;49.774;8.650;2023-04-25T04:13:34;10.32;;;9.35;;
22995;SDS011;11664;49.774;8.650;2023-04-25T04:15:59;23.15;;;21.38;;
22995;SDS011;11664;49.774;8.650;2023-04-25T04:18:28;21.23;;;19.65;;
22995;SDS011;11664;49.774;8.650;2023-04-25T04:20:59;24.08;;;22.48;;
22995;SDS011;11664;49.774;8.650;2023-04-25T04:23:35;22.10;;;20.45;;
22995;SDS011;11664;49.774;8.650;2023-04-25T04:26:08;16.05;;;14.57;;
22995;SDS011;11664;49.774;8.650;2023-04-25T04:28:40;10.70;;;9.60;;
22995;SDS011;11664;49.774;8.650;2023-04-25T04:31:06;14.40;;;13.00;;
22995;SDS011;11664;49.774;8.650;2023-04-25T04:33:32;11.25;;;9.90;;
22995;SDS011;11664;49.774;8.650;2023-04-25T04:36:08;12.85;;;11.52;;
22995;SDS011;11664;49.774;8.650;2023-04-25T04:38:36;12.10;;;10.73;;
22995;SDS011;11664;49.774;8.650;2023-04-25T04:41:02;10.85;;;9.73;;
22995;SDS011;11664;49.774;8.650;2023-04-25T04:43:31;12.02;;;9.90;;
22995;SDS011;11664;49.774;8.650;2023-04-25T04:46:07;11.57;;;9.80;;
22995;SDS011;11664;49.774;8.650;2023-04-25T04:48:44;11.23;;;9.60;;
22995;SDS011;11664;49.774;8.650;2023-04-25T04:51:10;12.27;;;11.15;;
22995;SDS011;11664;49.774;8.650;2023-04-25T04:53:36;13.35;;;12.13;;
22995;SDS011;11664;49.774;8.650;2023-04-25T04:56:01;18.90;;;13.35;;
22995;SDS011;11664;49.774;8.650;2023-04-25T04:58:32;13.23;;;11.97;;
22995;SDS011;11664;49.774;8.650;2023-04-25T05:01:02;13.05;;;11.73;;
22995;SDS011;11664;49.774;8.650;2023-04-25T05:03:27;11.35;;;10.15;;
22995;SDS011;11664;49.774;8.650;2023-04-25T05:05:59;9.73;;;8.83;;
22995;SDS011;11664;49.774;8.650;2023-04-25T05:08:30;12.52;;;11.48;;
22995;SDS011;11664;49.774;8.650;2023-04-25T05:10:59;12.02;;;10.82;;
22995;SDS011;11664;49.774;8.650;2023-04-25T05:13:33;23.00;;;21.27;;
22995;SDS011;11664;49.774;8.650;2023-04-25T05:15:59;30.33;;;27.92;;
22995;SDS011;11664;49.774;8.650;2023-04-25T05:18:25;12.05;;;9.52;;
22995;SDS011;11664;49.774;8.650;2023-04-25T05:20:59;14.98;;;11.65;;
22995;SDS011;11664;49.774;8.650;2023-04-25T05:23:32;22.45;;;20.70;;
22995;SDS011;11664;49.774;8.650;2023-04-25T05:26:01;27.45;;;25.52;;
22995;SDS011;11664;49.774;8.650;2023-04-25T05:28:26;31.42;;;29.25;;
22995;SDS011;11664;49.774;8.650;2023-04-25T05:30:58;21.92;;;20.45;;
22995;SDS011;11664;49.774;8.650;2023-04-25T05:33:23;20.20;;;18.40;;
22995;SDS011;11664;49.774;8.650;2023-04-25T05:35:49;31.73;;;29.42;;
22995;SDS011;11664;49.774;8.650;2023-04-25T05:38:15;27.55;;;25.55;;
22995;SDS011;11664;49.774;8.650;2023-04-25T05:40:40;23.23;;;21.50;;
22995;SDS011;11664;49.774;8.650;2023-04-25T05:43:06;40.88;;;38.05;;
22995;SDS011;11664;49.774;8.650;2023-04-25T05:45:35;24.85;;;22.75;;
22995;SDS011;11664;49.774;8.650;2023-04-25T05:48:06;18.38;;;16.73;;
22995;SDS011;11664;49.774;8.650;2023-04-25T05:50:32;24.08;;;22.38;;
22995;SDS011;11664;49.774;8.650;2023-04-25T05:55:46;19.52;;;11.07;;
22995;SDS011;11664;49.774;8.650;2023-04-25T05:58:12;39.58;;;36.58;;
22995;SDS011;11664;49.774;8.650;2023-04-25T06:00:37;24.95;;;22.85;;
22995;SDS011;11664;49.774;8.650;2023-04-25T06:03:12;20.67;;;18.75;;
22995;SDS011;11664;49.774;8.650;2023-04-25T06:05:41;15.43;;;12.55;;
22995;SDS011;11664;49.774;8.650;2023-04-25T06:08:07;18.23;;;8.30;;
22995;SDS011;11664;49.774;8.650;2023-04-25T06:10:38;19.98;;;9.57;;
22995;SDS011;11664;49.774;8.650;2023-04-25T06:13:04;16.42;;;15.00;;
22995;SDS011;11664;49.774;8.650;2023-04-25T06:15:30;13.93;;;12.02;;
22995;SDS011;11664;49.774;8.650;2023-04-25T06:18:03;17.42;;;12.90;;
22995;SDS011;11664;49.774;8.650;2023-04-25T06:20:29;15.18;;;10.02;;
22995;SDS011;11664;49.774;8.650;2023-04-25T06:22:54;11.68;;;8.18;;
22995;SDS011;11664;49.774;8.650;2023-04-25T06:25:32;11.55;;;8.77;;
22995;SDS011;11664;49.774;8.650;2023-04-25T06:27:58;16.80;;;10.52;;
22995;SDS011;11664;49.774;8.650;2023-04-25T06:30:29;12.18;;;10.88;;
22995;SDS011;11664;49.774;8.650;2023-04-25T06:32:55;15.88;;;12.93;;
22995;SDS011;11664;49.774;8.650;2023-04-25T06:35:23;15.43;;;10.15;;
22995;SDS011;11664;49.774;8.650;2023-04-25T06:37:49;15.38;;;10.43;;
22995;SDS011;11664;49.774;8.650;2023-04-25T06:40:21;12.90;;;11.43;;
22995;SDS011;11664;49.774;8.650;2023-04-25T06:43:02;12.77;;;10.57;;
22995;SDS011;11664;49.774;8.650;2023-04-25T06:45:27;13.43;;;8.88;;
22995;SDS011;11664;49.774;8.650;2023-04-25T06:47:56;14.68;;;10.18;;
22995;SDS011;11664;49.774;8.650;2023-04-25T06:50:21;18.30;;;10.35;;
22995;SDS011;11664;49.774;8.650;2023-04-25T06:52:50;10.98;;;9.25;;
22995;SDS011;11664;49.774;8.650;2023-04-25T06:55:18;9.80;;;7.65;;
22995;SDS011;11664;49.774;8.650;2023-04-25T06:57:44;9.50;;;7.53;;
22995;SDS011;11664;49.774;8.650;2023-04-25T07:00:10;16.52;;;9.15;;
22995;SDS011;11664;49.774;8.650;2023-04-25T07:02:36;17.58;;;8.50;;
22995;SDS011;11664;49.774;8.650;2023-04-25T07:05:04;13.90;;;6.75;;
22995;SDS011;11664;49.774;8.650;2023-04-25T07:07:36;9.57;;;6.30;;
22995;SDS011;11664;49.774;8.650;2023-04-25T07:10:04;9.23;;;5.85;;
22995;SDS011;11664;49.774;8.650;2023-04-25T07:12:42;9.68;;;5.63;;
22995;SDS011;11664;49.774;8.650;2023-04-25T07:15:20;8.75;;;6.10;;
22995;SDS011;11664;49.774;8.650;2023-04-25T07:17:46;8.05;;;6.00;;
22995;SDS011;11664;49.774;8.650;2023-04-25T07:20:17;9.10;;;6.15;;
22995;SDS011;11664;49.774;8.650;2023-04-25T07:22:43;7.32;;;5.53;;
22995;SDS011;11664;49.774;8.650;2023-04-25T07:25:18;9.98;;;5.55;;
22995;SDS011;11664;49.774;8.650;2023-04-25T07:27:49;7.43;;;5.40;;
22995;SDS011;11664;49.774;8.650;2023-04-25T07:30:15;10.10;;;6.35;;
22995;SDS011;11664;49.774;8.650;2023-04-25T07:32:40;11.52;;;5.30;;
22995;SDS011;11664;49.774;8.650;2023-04-25T07:35:06;6.68;;;5.55;;
22995;SDS011;11664;49.774;8.650;2023-04-25T07:37:38;9.45;;;5.72;;
22995;SDS011;11664;49.774;8.650;2023-04-25T07:40:04;8.30;;;5.45;;
22995;SDS011;11664;49.774;8.650;2023-04-25T07:42:30;9.18;;;5.07;;
22995;SDS011;11664;49.774;8.650;2023-04-25T07:44:59;11.93;;;6.68;;
22995;SDS011;11664;49.774;8.650;2023-04-25T07:47:26;9.88;;;4.82;;
22995;SDS011;11664;49.774;8.650;2023-04-25T07:49:57;7.00;;;5.90;;
22995;SDS011;11664;49.774;8.650;2023-04-25T07:52:23;8.50;;;5.32;;
22995;SDS011;11664;49.774;8.650;2023-04-25T07:55:04;6.77;;;5.33;;
22995;SDS011;11664;49.774;8.650;2023-04-25T07:57:30;11.65;;;5.63;;
22995;SDS011;11664;49.774;8.650;2023-04-25T07:59:58;7.57;;;5.28;;
22995;SDS011;11664;49.774;8.650;2023-04-25T08:02:24;7.13;;;5.45;;
22995;SDS011;11664;49.774;8.650;2023-04-25T08:04:53;9.55;;;5.28;;
22995;SDS011;11664;49.774;8.650;2023-04-25T08:07:24;12.57;;;5.50;;
22995;SDS011;11664;49.774;8.650;2023-04-25T08:09:50;8.98;;;5.03;;
22995;SDS011;11664;49.774;8.650;2023-04-25T08:12:15;12.73;;;4.90;;
22995;SDS011;11664;49.774;8.650;2023-04-25T08:14:44;8.90;;;4.57;;
22995;SDS011;11664;49.774;8.650;2023-04-25T08:17:12;8.43;;;5.35;;
22995;SDS011;11664;49.774;8.650;2023-04-25T08:19:38;5.93;;;5.28;;
22995;SDS011;11664;49.774;8.650;2023-04-25T08:22:19;7.68;;;4.65;;
22995;SDS011;11664;49.774;8.650;2023-04-25T08:24:45;8.13;;;4.53;;
22995;SDS011;11664;49.774;8.650;2023-04-25T08:27:17;15.10;;;5.43;;
22995;SDS011;11664;49.774;8.650;2023-04-25T08:29:43;8.77;;;6.00;;
22995;SDS011;11664;49.774;8.650;2023-04-25T08:32:11;8.10;;;5.70;;
22995;SDS011;11664;49.774;8.650;2023-04-25T08:34:37;12.63;;;6.28;;
22995;SDS011;11664;49.774;8.650;2023-04-25T08:37:07;7.45;;;5.60;;
22995;SDS011;11664;49.774;8.650;2023-04-25T08:39:34;9.90;;;5.80;;
22995;SDS011;11664;49.774;8.650;2023-04-25T08:42:01;6.53;;;5.05;;
22995;SDS011;11664;49.774;8.650;2023-04-25T08:44:29;6.03;;;4.85;;
22995;SDS011;11664;49.774;8.650;2023-04-25T08:46:58;9.18;;;4.75;;
22995;SDS011;11664;49.774;8.650;2023-04-25T08:49:27;6.40;;;5.53;;
22995;SDS011;11664;49.774;8.650;2023-04-25T08:51:53;9.23;;;5.70;;
22995;SDS011;11664;49.774;8.650;2023-04-25T08:54:23;11.30;;;5.65;;
22995;SDS011;11664;49.774;8.650;2023-04-25T08:56:56;6.80;;;5.35;;
22995;SDS011;11664;49.774;8.650;2023-04-25T08:59:23;7.80;;;5.50;;
22995;SDS011;11664;49.774;8.650;2023-04-25T09:01:49;10.65;;;6.28;;
22995;SDS011;11664;49.774;8.650;2023-04-25T09:04:18;6.65;;;5.95;;
22995;SDS011;11664;49.774;8.650;2023-04-25T09:06:45;8.45;;;5.57;;
22995;SDS011;11664;49.774;8.650;2023-04-25T09:09:11;8.88;;;6.45;;
22995;SDS011;11664;49.774;8.650;2023-04-25T09:11:46;9.15;;;6.32;;
22995;SDS011;11664;49.774;8.650;2023-04-25T09:14:18;12.00;;;6.45;;
22995;SDS011;11664;49.774;8.650;2023-04-25T09:17:00;9.27;;;6.75;;
22995;SDS011;11664;49.774;8.650;2023-04-25T09:19:29;8.75;;;6.60;;
22995;SDS011;11664;49.774;8.650;2023-04-25T09:22:00;8.02;;;7.28;;
22995;SDS011;11664;49.774;8.650;2023-04-25T09:27:06;7.00;;;5.50;;
22995;SDS011;11664;49.774;8.650;2023-04-25T09:32:45;7.47;;;5.10;;
22995;SDS011;11664;49.774;8.650;2023-04-25T09:35:23;10.07;;;4.60;;
22995;SDS011;11664;49.774;8.650;2023-04-25T09:37:59;5.32;;;4.75;;
22995;SDS011;11664;49.774;8.650;2023-04-25T09:40:25;4.18;;;3.70;;
22995;SDS011;11664;49.774;8.650;2023-04-25T09:42:51;4.68;;;4.00;;
22995;SDS011;11664;49.774;8.650;2023-04-25T09:45:16;7.65;;;4.00;;
22995;SDS011;11664;49.774;8.650;2023-04-25T09:47:42;6.47;;;4.05;;
22995;SDS011;11664;49.774;8.650;2023-04-25T09:50:15;5.93;;;4.35;;
22995;SDS011;11664;49.774;8.650;2023-04-25T09:52:42;9.88;;;4.47;;
22995;SDS011;11664;49.774;8.650;2023-04-25T09:55:08;4.43;;;4.03;;
22995;SDS011;11664;49.774;8.650;2023-04-25T09:57:36;5.45;;;4.07;;
22995;SDS011;11664;49.774;8.650;2023-04-25T10:00:07;4.35;;;3.97;;
22995;SDS011;11664;49.774;8.650;2023-04-25T10:02:37;4.18;;;3.65;;
22995;SDS011;11664;49.774;8.650;2023-04-25T10:05:09;4.20;;;3.80;;
22995;SDS011;11664;49.774;8.650;2023-04-25T10:07:42;7.85;;;4.00;;
22995;SDS011;11664;49.774;8.650;2023-04-25T10:10:13;4.53;;;4.03;;
22995;SDS011;11664;49.774;8.650;2023-04-25T10:12:46;4.90;;;4.50;;
22995;SDS011;11664;49.774;8.650;2023-04-25T10:15:12;4.38;;;3.50;;
22995;SDS011;11664;49.774;8.650;2023-04-25T10:17:38;4.80;;;4.00;;
22995;SDS011;11664;49.774;8.650;2023-04-25T10:20:08;4.25;;;3.95;;
22995;SDS011;11664;49.774;8.650;2023-04-25T10:22:36;5.40;;;3.70;;
22995;SDS011;11664;49.774;8.650;2023-04-25T10:25:10;5.18;;;4.07;;
22995;SDS011;11664;49.774;8.650;2023-04-25T10:27:36;4.47;;;4.07;;
22995;SDS011;11664;49.774;8.650;2023-04-25T10:32:58;5.72;;;4.45;;
22995;SDS011;11664;49.774;8.650;2023-04-25T10:35:28;3.88;;;3.55;;
22995;SDS011;11664;49.774;8.650;2023-04-25T10:40:42;4.53;;;4.10;;
22995;SDS011;11664;49.774;8.650;2023-04-25T10:46:29;4.43;;;4.00;;
22995;SDS011;11664;49.774;8.650;2023-04-25T10:49:00;4.72;;;4.32;;
22995;SDS011;11664;49.774;8.650;2023-04-25T10:51:27;4.70;;;4.28;;
22995;SDS011;11664;49.774;8.650;2023-04-25T10:56:27;4.72;;;4.32;;
22995;SDS011;11664;49.774;8.650;2023-04-25T10:59:13;6.18;;;4.88;;
22995;SDS011;11664;49.774;8.650;2023-04-25T11:01:51;4.97;;;4.35;;
22995;SDS011;11664;49.774;8.650;2023-04-25T11:10:09;9.15;;;5.72;;
22995;SDS011;11664;49.774;8.650;2023-04-25T11:12:35;7.97;;;4.97;;
22995;SDS011;11664;49.774;8.650;2023-04-25T11:15:04;6.38;;;5.22;;
22995;SDS011;11664;49.774;8.650;2023-04-25T11:17:31;7.53;;;5.07;;
22995;SDS011;11664;49.774;8.650;2023-04-25T11:19:57;9.07;;;5.30;;
22995;SDS011;11664;49.774;8.650;2023-04-25T11:22:32;6.80;;;5.32;;
22995;SDS011;11664;49.774;8.650;2023-04-25T11:24:58;5.85;;;4.82;;
22995;SDS011;11664;49.774;8.650;2023-04-25T11:27:30;6.03;;;5.18;;
22995;SDS011;11664;49.774;8.650;2023-04-25T11:30:20;6.10;;;5.05;;
22995;SDS011;11664;49.774;8.650;2023-04-25T11:32:56;5.95;;;4.60;;
22995;SDS011;11664;49.774;8.650;2023-04-25T11:35:34;5.15;;;4.75;;
22995;SDS011;11664;49.774;8.650;2023-04-25T11:38:00;8.35;;;5.57;;
22995;SDS011;11664;49.774;8.650;2023-04-25T11:40:35;8.40;;;5.40;;
22995;SDS011;11664;49.774;8.650;2023-04-25T11:43:01;9.75;;;5.78;;
22995;SDS011;11664;49.774;8.650;2023-04-25T11:45:29;7.30;;;6.30;;
22995;SDS011;11664;49.774;8.650;2023-04-25T11:47:56;7.22;;;6.60;;
22995;SDS011;11664;49.774;8.650;2023-04-25T11:50:27;5.90;;;5.40;;
22995;SDS011;11664;49.774;8.650;2023-04-25T11:52:56;6.15;;;5.60;;
22995;SDS011;11664;49.774;8.650;2023-04-25T11:55:22;5.25;;;4.38;;
22995;SDS011;11664;49.774;8.650;2023-04-25T11:57:53;5.85;;;4.93;;
22995;SDS011;11664;49.774;8.650;2023-04-25T12:00:19;6.40;;;5.22;;
22995;SDS011;11664;49.774;8.650;2023-04-25T12:02:46;8.23;;;5.35;;
22995;SDS011;11664;49.774;8.650;2023-04-25T12:05:19;6.50;;;4.88;;
22995;SDS011;11664;49.774;8.650;2023-04-25T12:07:48;7.32;;;5.05;;
22995;SDS011;11664;49.774;8.650;2023-04-25T12:10:20;6.65;;;5.30;;
22995;SDS011;11664;49.774;8.650;2023-04-25T12:12:46;10.50;;;5.03;;
22995;SDS011;11664;49.774;8.650;2023-04-25T12:15:22;11.48;;;5.28;;
22995;SDS011;11664;49.774;8.650;2023-04-25T12:17:50;5.65;;;4.65;;
22995;SDS011;11664;49.774;8.650;2023-04-25T12:20:21;5.53;;;5.00;;
22995;SDS011;11664;49.774;8.650;2023-04-25T12:22:53;6.32;;;5.82;;
22995;SDS011;11664;49.774;8.650;2023-04-25T12:28:19;6.35;;;5.53;;
22995;SDS011;11664;49.774;8.650;2023-04-25T12:30:56;7.85;;;6.43;;
22995;SDS011;11664;49.774;8.650;2023-04-25T12:33:27;7.10;;;5.55;;
22995;SDS011;11664;49.774;8.650;2023-04-25T12:35:57;7.95;;;7.18;;
22995;SDS011;11664;49.774;8.650;2023-04-25T12:38:28;6.05;;;5.10;;
22995;SDS011;11664;49.774;8.650;2023-04-25T12:40:55;6.80;;;4.85;;
22995;SDS011;11664;49.774;8.650;2023-04-25T12:43:30;10.27;;;5.40;;
22995;SDS011;11664;49.774;8.650;2023-04-25T12:45:56;6.03;;;5.03;;
22995;SDS011;11664;49.774;8.650;2023-04-25T12:48:27;7.55;;;4.95;;
22995;SDS011;11664;49.774;8.650;2023-04-25T12:50:53;6.70;;;5.00;;
22995;SDS011;11664;49.774;8.650;2023-04-25T12:53:19;5.95;;;5.22;;
22995;SDS011;11664;49.774;8.650;2023-04-25T12:55:52;9.70;;;6.35;;
22995;SDS011;11664;49.774;8.650;2023-04-25T12:58:20;5.95;;;5.50;;
22995;SDS011;11664;49.774;8.650;2023-04-25T13:00:47;7.07;;;5.07;;
22995;SDS011;11664;49.774;8.650;2023-04-25T13:03:13;8.88;;;4.63;;
22995;SDS011;11664;49.774;8.650;2023-04-25T13:05:39;5.78;;;4.80;;
22995;SDS011;11664;49.774;8.650;2023-04-25T13:08:11;5.78;;;5.28;;
22995;SDS011;11664;49.774;8.650;2023-04-25T13:10:40;7.55;;;4.15;;
22995;SDS011;11664;49.774;8.650;2023-04-25T13:13:08;5.20;;;4.03;;
22995;SDS011;11664;49.774;8.650;2023-04-25T13:15:36;6.40;;;5.03;;
22995;SDS011;11664;49.774;8.650;2023-04-25T13:18:03;7.40;;;4.22;;
22995;SDS011;11664;49.774;8.650;2023-04-25T13:20:36;5.50;;;4.60;;
22995;SDS011;11664;49.774;8.650;2023-04-25T13:23:05;5.03;;;4.40;;
22995;SDS011;11664;49.774;8.650;2023-04-25T13:25:36;6.60;;;6.00;;
22995;SDS011;11664;49.774;8.650;2023-04-25T13:31:17;4.57;;;4.18;;
22995;SDS011;11664;49.774;8.650;2023-04-25T13:33:46;4.60;;;4.18;;
22995;SDS011;11664;49.774;8.650;2023-04-25T13:36:21;7.53;;;4.50;;
22995;SDS011;11664;49.774;8.650;2023-04-25T13:38:49;4.50;;;4.10;;
22995;SDS011;11664;49.774;8.650;2023-04-25T13:41:15;16.52;;;6.15;;
22995;SDS011;11664;49.774;8.650;2023-04-25T13:43:49;5.97;;;5.20;;
22995;SDS011;11664;49.774;8.650;2023-04-25T13:46:15;5.85;;;5.35;;
22995;SDS011;11664;49.774;8.650;2023-04-25T13:48:41;6.03;;;5.53;;
22995;SDS011;11664;49.774;8.650;2023-04-25T13:51:19;9.10;;;7.10;;
22995;SDS011;11664;49.774;8.650;2023-04-25T13:53:45;9.15;;;6.30;;
22995;SDS011;11664;49.774;8.650;2023-04-25T13:56:11;7.97;;;7.38;;
22995;SDS011;11664;49.774;8.650;2023-04-25T13:58:39;7.88;;;7.25;;
22995;SDS011;11664;49.774;8.650;2023-04-25T14:01:08;8.13;;;7.43;;
22995;SDS011;11664;49.774;8.650;2023-04-25T14:03:34;8.90;;;8.30;;
22995;SDS011;11664;49.774;8.650;2023-04-25T14:06:12;8.02;;;7.35;;
22995;SDS011;11664;49.774;8.650;2023-04-25T14:08:38;6.85;;;6.25;;
22995;SDS011;11664;49.774;8.650;2023-04-25T14:11:10;8.50;;;7.88;;
22995;SDS011;11664;49.774;8.650;2023-04-25T14:13:45;7.72;;;7.18;;
22995;SDS011;11664;49.774;8.650;2023-04-25T14:16:14;6.13;;;3.92;;
22995;SDS011;11664;49.774;8.650;2023-04-25T14:18:40;6.57;;;5.40;;
22995;SDS011;11664;49.774;8.650;2023-04-25T14:21:12;6.90;;;4.40;;
22995;SDS011;11664;49.774;8.650;2023-04-25T14:23:37;7.18;;;3.90;;
22995;SDS011;11664;49.774;8.650;2023-04-25T14:26:03;6.32;;;5.18;;
22995;SDS011;11664;49.774;8.650;2023-04-25T14:28:28;7.13;;;5.05;;
22995;SDS011;11664;49.774;8.650;2023-04-25T14:30:54;4.22;;;3.83;;
22995;SDS011;11664;49.774;8.650;2023-04-25T14:33:19;5.47;;;4.40;;
22995;SDS011;11664;49.774;8.650;2023-04-25T14:35:45;6.05;;;3.80;;
22995;SDS011;11664;49.774;8.650;2023-04-25T14:38:11;6.07;;;5.38;;
22995;SDS011;11664;49.774;8.650;2023-04-25T14:40:37;5.00;;;4.57;;
22995;SDS011;11664;49.774;8.650;2023-04-25T14:43:03;6.03;;;4.22;;
22995;SDS011;11664;49.774;8.650;2023-04-25T14:45:28;5.68;;;4.13;;
22995;SDS011;11664;49.774;8.650;2023-04-25T14:47:54;9.88;;;4.30;;
22995;SDS011;11664;49.774;8.650;2023-04-25T14:50:20;9.82;;;5.35;;
22995;SDS011;11664;49.774;8.650;2023-04-25T14:52:45;4.07;;;3.78;;
22995;SDS011;11664;49.774;8.650;2023-04-25T14:55:11;6.32;;;4.38;;
22995;SDS011;11664;49.774;8.650;2023-04-25T14:57:37;6.60;;;4.03;;
22995;SDS011;11664;49.774;8.650;2023-04-25T15:00:04;5.20;;;4.20;;
22995;SDS011;11664;49.774;8.650;2023-04-25T15:02:34;7.00;;;3.97;;
22995;SDS011;11664;49.774;8.650;2023-04-25T15:04:59;4.72;;;3.92;;
22995;SDS011;11664;49.774;8.650;2023-04-25T15:07:25;5.68;;;4.13;;
22995;SDS011;11664;49.774;8.650;2023-04-25T15:09:51;5.22;;;3.35;;
22995;SDS011;11664;49.774;8.650;2023-04-25T15:12:18;4.55;;;4.05;;
22995;SDS011;11664;49.774;8.650;2023-04-25T15:14:43;5.97;;;4.50;;
22995;SDS011;11664;49.774;8.650;2023-04-25T15:17:09;5.75;;;4.00;;
22995;SDS011;11664;49.774;8.650;2023-04-25T15:19:35;5.90;;;3.95;;
22995;SDS011;11664;49.774;8.650;2023-04-25T15:22:01;4.25;;;3.88;;
22995;SDS011;11664;49.774;8.650;2023-04-25T15:24:27;4.07;;;3.78;;